Terminal Aerodrome Forecast
Issued by NWS

Home | Current Version | Previous Version | Text Only | Print | Product List | Glossary On
Versions: 1 2 3 4 5 6 7 8 9 10 11 12 13 14 15 16 17 18 19 20
000
FTUS41 KPBZ 061754 CCA
TAFLBE
TAF COR
KLBE 061754Z 0618/0718 01013G18KT P6SM VCSH SCT040 BKN250
     FM061930 36012KT 5SM -SHRA BKN040
     FM070100 VRB04KT P6SM VCSH BKN040
     FM070400 34006KT P6SM BKN070
     FM071300 20004KT P6SM BKN250=

USA.gov is the U.S. government's official web portal to all federal, state and local government web resources and services.